Aviation Digital Data Service (ADDS)

Output produced by METARs form (2153 UTC 29 May 2020)
found at http://www.aviationweather.gov/metar/data/
 
METAR text: KEKN 292151Z AUTO 20010G17KT 10SM SCT100 24/13 A2997 RMK AO2 SLP142 T02440133
Conditions at: KEKN (ELKINS , WV, US) observed 2151 UTC 29 May 2020
Temperature: 24.4°C (76°F)
Dewpoint: 13.3°C (56°F) [RH = 50%]
Pressure (altimeter): 29.97 inches Hg (1015.0 mb)
[Sea-level pressure: 1014.2 mb]
Winds: from the SSW (200 degrees) at 12 MPH (10 knots; 5.1 m/s)
gusting to 20 MPH (17 knots; 8.7 m/s)
Visibility: 10 or more miles (16+ km)
Ceiling: at least 12,000 feet AGL
Clouds: scattered clouds at 10000 feet AGL
Weather: automated observation with no human augmentation;
there may or may not be significant weather present at this time

METAR text: KEKN 292051Z AUTO 24007KT 10SM FEW070 BKN110 26/13 A2996 RMK AO2 SLP135 T02610133 56023
Conditions at: KEKN (ELKINS , WV, US) observed 2051 UTC 29 May 2020
Temperature: 26.1°C (79°F)
Dewpoint: 13.3°C (56°F) [RH = 45%]
Pressure (altimeter): 29.96 inches Hg (1014.6 mb)
[Sea-level pressure: 1013.5 mb]
Winds: from the WSW (240 degrees) at 8 MPH (7 knots; 3.6 m/s)
Visibility: 10 or more miles (16+ km)
Ceiling: 11000 feet AGL
Clouds: few clouds at 7000 feet AGL
broken clouds at 11000 feet AGL
Weather: automated observation with no human augmentation;
there may or may not be significant weather present at this time

METAR text: KEKN 291951Z AUTO 23007KT 10SM SCT055 BKN070 27/14 A2996 RMK AO2 SLP135 T02720144
Conditions at: KEKN (ELKINS , WV, US) observed 1951 UTC 29 May 2020
Temperature: 27.2°C (81°F)
Dewpoint: 14.4°C (58°F) [RH = 45%]
Pressure (altimeter): 29.96 inches Hg (1014.6 mb)
[Sea-level pressure: 1013.5 mb]
Winds: from the SW (230 degrees) at 8 MPH (7 knots; 3.6 m/s)
Visibility: 10 or more miles (16+ km)
Ceiling: 7000 feet AGL
Clouds: scattered clouds at 5500 feet AGL
broken clouds at 7000 feet AGL
Weather: automated observation with no human augmentation;
there may or may not be significant weather present at this time

METAR text: KEKN 291851Z AUTO 20010G18KT 180V240 10SM BKN050 26/14 A3000 RMK AO2 SLP149 T02560144
Conditions at: KEKN (ELKINS , WV, US) observed 1851 UTC 29 May 2020
Temperature: 25.6°C (78°F)
Dewpoint: 14.4°C (58°F) [RH = 50%]
Pressure (altimeter): 30.00 inches Hg (1016.0 mb)
[Sea-level pressure: 1014.9 mb]
Winds: from the SSW (200 degrees) at 12 MPH (10 knots; 5.1 m/s)
gusting to 21 MPH (18 knots; 9.3 m/s)
Visibility: 10 or more miles (16+ km)
Ceiling: 5000 feet AGL
Clouds: broken clouds at 5000 feet AGL
Weather: automated observation with no human augmentation;
there may or may not be significant weather present at this time

METAR text: KEKN 291751Z AUTO 23011KT 10SM FEW100 24/14 A3003 RMK AO2 RAB1653E03 SLP161 P0000 60000 T02440139 10250 20183 58009
Conditions at: KEKN (ELKINS , WV, US) observed 1751 UTC 29 May 2020
Temperature: 24.4°C (76°F)
Dewpoint: 13.9°C (57°F) [RH = 52%]
Pressure (altimeter): 30.03 inches Hg (1017.0 mb)
[Sea-level pressure: 1016.1 mb]
Winds: from the SW (230 degrees) at 13 MPH (11 knots; 5.7 m/s)
Visibility: 10 or more miles (16+ km)
Ceiling: at least 12,000 feet AGL
Clouds: few clouds at 10000 feet AGL
Weather: automated observation with no human augmentation;
there may or may not be significant weather present at this time

METAR text: KEKN 291651Z AUTO 21009G15KT 10SM FEW050 BKN100 24/13 A3006 RMK AO2 SLP171 T02390133
Conditions at: KEKN (ELKINS , WV, US) observed 1651 UTC 29 May 2020
Temperature: 23.9°C (75°F)
Dewpoint: 13.3°C (56°F) [RH = 51%]
Pressure (altimeter): 30.06 inches Hg (1018.0 mb)
[Sea-level pressure: 1017.1 mb]
Winds: from the SSW (210 degrees) at 10 MPH (9 knots; 4.6 m/s)
gusting to 17 MPH (15 knots; 7.7 m/s)
Visibility: 10 or more miles (16+ km)
Ceiling: 10000 feet AGL
Clouds: few clouds at 5000 feet AGL
broken clouds at 10000 feet AGL
Weather: automated observation with no human augmentation;
there may or may not be significant weather present at this time

METAR text: KEKN 291551Z AUTO 21004KT 10SM CLR 24/14 A3007 RMK AO2 SLP172 T02440139
Conditions at: KEKN (ELKINS , WV, US) observed 1551 UTC 29 May 2020
Temperature: 24.4°C (76°F)
Dewpoint: 13.9°C (57°F) [RH = 52%]
Pressure (altimeter): 30.07 inches Hg (1018.4 mb)
[Sea-level pressure: 1017.2 mb]
Winds: from the SSW (210 degrees) at 5 MPH (4 knots; 2.1 m/s)
Visibility: 10 or more miles (16+ km)
Ceiling: at least 12,000 feet AGL
Clouds: sky clear below 12,000 feet AGL
Weather: automated observation with no human augmentation;
there may or may not be significant weather present at this time

METAR text: KEKN 291451Z AUTO 22009KT 10SM CLR 24/14 A3006 RMK AO2 SLP171 T02390139 58006
Conditions at: KEKN (ELKINS , WV, US) observed 1451 UTC 29 May 2020
Temperature: 23.9°C (75°F)
Dewpoint: 13.9°C (57°F) [RH = 54%]
Pressure (altimeter): 30.06 inches Hg (1018.0 mb)
[Sea-level pressure: 1017.1 mb]
Winds: from the SW (220 degrees) at 10 MPH (9 knots; 4.6 m/s)
Visibility: 10 or more miles (16+ km)
Ceiling: at least 12,000 feet AGL
Clouds: sky clear below 12,000 feet AGL
Weather: automated observation with no human augmentation;
there may or may not be significant weather present at this time

METAR text: KEKN 291351Z AUTO 23004KT 10SM SCT041 24/16 A3007 RMK AO2 SLP173 T02440156
Conditions at: KEKN (ELKINS , WV, US) observed 1351 UTC 29 May 2020
Temperature: 24.4°C (76°F)
Dewpoint: 15.6°C (60°F) [RH = 58%]
Pressure (altimeter): 30.07 inches Hg (1018.4 mb)
[Sea-level pressure: 1017.3 mb]
Winds: from the SW (230 degrees) at 5 MPH (4 knots; 2.1 m/s)
Visibility: 10 or more miles (16+ km)
Ceiling: at least 12,000 feet AGL
Clouds: scattered clouds at 4100 feet AGL
Weather: automated observation with no human augmentation;
there may or may not be significant weather present at this time

METAR text: KEKN 291251Z AUTO 18005KT 10SM CLR 22/17 A3008 RMK AO2 SLP175 T02220167
Conditions at: KEKN (ELKINS , WV, US) observed 1251 UTC 29 May 2020
Temperature: 22.2°C (72°F)
Dewpoint: 16.7°C (62°F) [RH = 71%]
Pressure (altimeter): 30.08 inches Hg (1018.7 mb)
[Sea-level pressure: 1017.5 mb]
Winds: from the S (180 degrees) at 6 MPH (5 knots; 2.6 m/s)
Visibility: 10 or more miles (16+ km)
Ceiling: at least 12,000 feet AGL
Clouds: sky clear below 12,000 feet AGL
Weather: automated observation with no human augmentation;
there may or may not be significant weather present at this time

METAR text: KEKN 291151Z AUTO 00000KT 10SM FEW032 BKN080 18/17 A3008 RMK AO2 SLP179 70013 T01830167 10183 20156 53010
Conditions at: KEKN (ELKINS , WV, US) observed 1151 UTC 29 May 2020
Temperature: 18.3°C (65°F)
Dewpoint: 16.7°C (62°F) [RH = 90%]
Pressure (altimeter): 30.08 inches Hg (1018.7 mb)
[Sea-level pressure: 1017.9 mb]
Winds: calm
Visibility: 10 or more miles (16+ km)
Ceiling: 8000 feet AGL
Clouds: few clouds at 3200 feet AGL
broken clouds at 8000 feet AGL
Weather: automated observation with no human augmentation;
there may or may not be significant weather present at this time

METAR text: KEKN 291105Z AUTO 00000KT 3SM BR SCT001 BKN060 17/16 A3008 RMK AO2 T01720161
Conditions at: KEKN (ELKINS , WV, US) observed 1105 UTC 29 May 2020
Temperature: 17.2°C (63°F)
Dewpoint: 16.1°C (61°F) [RH = 93%]
Pressure (altimeter): 30.08 inches Hg (1018.7 mb)
Winds: calm
Visibility: 3 miles ( 5 km)
Ceiling: 6000 feet AGL
Clouds: scattered clouds at 100 feet AGL
broken clouds at 6000 feet AGL
Weather: BR  (mist)

METAR text: KEKN 291102Z AUTO 00000KT 1SM BR SCT001 BKN060 17/16 A3007 RMK AO2 T01670161
Conditions at: KEKN (ELKINS , WV, US) observed 1102 UTC 29 May 2020
Temperature: 16.7°C (62°F)
Dewpoint: 16.1°C (61°F) [RH = 96%]
Pressure (altimeter): 30.07 inches Hg (1018.4 mb)
Winds: calm
Visibility: 1.00 miles (1.61 km)
Ceiling: 6000 feet AGL
Clouds: scattered clouds at 100 feet AGL
broken clouds at 6000 feet AGL
Weather: BR  (mist)

METAR text: KEKN 291051Z AUTO 00000KT 1/4SM FG BKN001 OVC060 16/15 A3007 RMK AO2 SLP174 T01610150
Conditions at: KEKN (ELKINS , WV, US) observed 1051 UTC 29 May 2020
Temperature: 16.1°C (61°F)
Dewpoint: 15.0°C (59°F) [RH = 93%]
Pressure (altimeter): 30.07 inches Hg (1018.4 mb)
[Sea-level pressure: 1017.4 mb]
Winds: calm
Visibility: 0.25 miles (0.40 km)
Ceiling: 100 feet AGL
Clouds: broken clouds at 100 feet AGL
overcast cloud deck at 6000 feet AGL
Weather: FG  (fog)

METAR text: KEKN 291014Z AUTO 00000KT 1/4SM FG VV001 16/14 A3006 RMK AO2 T01560144
Conditions at: KEKN (ELKINS , WV, US) observed 1014 UTC 29 May 2020
Temperature: 15.6°C (60°F)
Dewpoint: 14.4°C (58°F) [RH = 93%]
Pressure (altimeter): 30.06 inches Hg (1018.0 mb)
Winds: calm
Visibility: 0.25 miles (0.40 km)
Ceiling: indefinite ceiling with vertical visibility of 100 feet AGL
Clouds: obscured sky
Weather: FG  (fog)

METAR text: KEKN 291001Z AUTO 27003KT 3/4SM BR BKN001 BKN095 16/14 A3006 RMK AO2 T01610144
Conditions at: KEKN (ELKINS , WV, US) observed 1001 UTC 29 May 2020
Temperature: 16.1°C (61°F)
Dewpoint: 14.4°C (58°F) [RH = 90%]
Pressure (altimeter): 30.06 inches Hg (1018.0 mb)
Winds: from the W (270 degrees) at 3 MPH (3 knots; 1.5 m/s)
Visibility: 0.75 miles (1.21 km)
Ceiling: 100 feet AGL
Clouds: broken clouds at 100 feet AGL
broken clouds at 9500 feet AGL
Weather: BR  (mist)

METAR text: KEKN 290954Z AUTO 00000KT 1 1/2SM BR SCT001 16/14 A3006 RMK AO2 VIS 3/4V4 T01560144
Conditions at: KEKN (ELKINS , WV, US) observed 0954 UTC 29 May 2020
Temperature: 15.6°C (60°F)
Dewpoint: 14.4°C (58°F) [RH = 93%]
Pressure (altimeter): 30.06 inches Hg (1018.0 mb)
Winds: calm
Visibility: 1.50 miles (2.41 km)
Ceiling: at least 12,000 feet AGL
Clouds: scattered clouds at 100 feet AGL
Weather: BR  (mist)

METAR text: KEKN 290951Z AUTO 00000KT 3/4SM BR VV001 16/14 A3006 RMK AO2 VIS 1/4V2 SLP170 T01560144
Conditions at: KEKN (ELKINS , WV, US) observed 0951 UTC 29 May 2020
Temperature: 15.6°C (60°F)
Dewpoint: 14.4°C (58°F) [RH = 93%]
Pressure (altimeter): 30.06 inches Hg (1018.0 mb)
[Sea-level pressure: 1017.0 mb]
Winds: calm
Visibility: 0.75 miles (1.21 km)
Ceiling: indefinite ceiling with vertical visibility of 100 feet AGL
Clouds: obscured sky
Weather: BR  (mist)

METAR text: KEKN 290924Z AUTO 00000KT 1/4SM FG VV001 16/14 A3005 RMK AO2 T01560144
Conditions at: KEKN (ELKINS , WV, US) observed 0924 UTC 29 May 2020
Temperature: 15.6°C (60°F)
Dewpoint: 14.4°C (58°F) [RH = 93%]
Pressure (altimeter): 30.05 inches Hg (1017.7 mb)
Winds: calm
Visibility: 0.25 miles (0.40 km)
Ceiling: indefinite ceiling with vertical visibility of 100 feet AGL
Clouds: obscured sky
Weather: FG  (fog)

METAR text: KEKN 290907Z AUTO 00000KT 1/2SM FG BKN001 OVC060 16/15 A3005 RMK AO2 T01610150
Conditions at: KEKN (ELKINS , WV, US) observed 0907 UTC 29 May 2020
Temperature: 16.1°C (61°F)
Dewpoint: 15.0°C (59°F) [RH = 93%]
Pressure (altimeter): 30.05 inches Hg (1017.7 mb)
Winds: calm
Visibility: 0.50 miles (0.80 km)
Ceiling: 100 feet AGL
Clouds: broken clouds at 100 feet AGL
overcast cloud deck at 6000 feet AGL
Weather: FG  (fog)

METAR text: KEKN 290857Z AUTO 00000KT 1/4SM FG BKN002 OVC065 17/16 A3005 RMK AO2 T01670156
Conditions at: KEKN (ELKINS , WV, US) observed 0857 UTC 29 May 2020
Temperature: 16.7°C (62°F)
Dewpoint: 15.6°C (60°F) [RH = 93%]
Pressure (altimeter): 30.05 inches Hg (1017.7 mb)
Winds: calm
Visibility: 0.25 miles (0.40 km)
Ceiling: 200 feet AGL
Clouds: broken clouds at 200 feet AGL
overcast cloud deck at 6500 feet AGL
Weather: FG  (fog)

METAR text: KEKN 290851Z AUTO 00000KT 1/2SM FG FEW002 BKN065 17/16 A3005 RMK AO2 SLP168 T01670156 54000
Conditions at: KEKN (ELKINS , WV, US) observed 0851 UTC 29 May 2020
Temperature: 16.7°C (62°F)
Dewpoint: 15.6°C (60°F) [RH = 93%]
Pressure (altimeter): 30.05 inches Hg (1017.7 mb)
[Sea-level pressure: 1016.8 mb]
Winds: calm
Visibility: 0.50 miles (0.80 km)
Ceiling: 6500 feet AGL
Clouds: few clouds at 200 feet AGL
broken clouds at 6500 feet AGL
Weather: FG  (fog)

METAR text: KEKN 290841Z AUTO 00000KT 3/4SM BR FEW002 FEW047 BKN060 17/16 A3004 RMK AO2 VIS 1/4V3 T01720156
Conditions at: KEKN (ELKINS , WV, US) observed 0841 UTC 29 May 2020
Temperature: 17.2°C (63°F)
Dewpoint: 15.6°C (60°F) [RH = 90%]
Pressure (altimeter): 30.04 inches Hg (1017.4 mb)
Winds: calm
Visibility: 0.75 miles (1.21 km)
Ceiling: 6000 feet AGL
Clouds: few clouds at 200 feet AGL
few clouds at 4700 feet AGL
broken clouds at 6000 feet AGL
Weather: BR  (mist)

METAR text: KEKN 290838Z AUTO 00000KT 1 3/4SM BR FEW041 SCT055 BKN070 17/16 A3004 RMK AO2 VIS 3/4V5 T01670156
Conditions at: KEKN (ELKINS , WV, US) observed 0838 UTC 29 May 2020
Temperature: 16.7°C (62°F)
Dewpoint: 15.6°C (60°F) [RH = 93%]
Pressure (altimeter): 30.04 inches Hg (1017.4 mb)
Winds: calm
Visibility: 1.75 miles (2.82 km)
Ceiling: 7000 feet AGL
Clouds: few clouds at 4100 feet AGL
scattered clouds at 5500 feet AGL
broken clouds at 7000 feet AGL
Weather: BR  (mist)

METAR text: KEKN 290812Z AUTO 00000KT 3SM BR FEW001 BKN043 OVC080 17/16 A3005 RMK AO2 T01720161
Conditions at: KEKN (ELKINS , WV, US) observed 0812 UTC 29 May 2020
Temperature: 17.2°C (63°F)
Dewpoint: 16.1°C (61°F) [RH = 93%]
Pressure (altimeter): 30.05 inches Hg (1017.7 mb)
Winds: calm
Visibility: 3 miles ( 5 km)
Ceiling: 4300 feet AGL
Clouds: few clouds at 100 feet AGL
broken clouds at 4300 feet AGL
overcast cloud deck at 8000 feet AGL
Weather: BR  (mist)

METAR text: KEKN 290805Z AUTO 00000KT 1 3/4SM BR FEW001 BKN050 OVC085 17/16 A3005 RMK AO2 T01720161
Conditions at: KEKN (ELKINS , WV, US) observed 0805 UTC 29 May 2020
Temperature: 17.2°C (63°F)
Dewpoint: 16.1°C (61°F) [RH = 93%]
Pressure (altimeter): 30.05 inches Hg (1017.7 mb)
Winds: calm
Visibility: 1.75 miles (2.82 km)
Ceiling: 5000 feet AGL
Clouds: few clouds at 100 feet AGL
broken clouds at 5000 feet AGL
overcast cloud deck at 8500 feet AGL
Weather: BR  (mist)

METAR text: KEKN 290800Z AUTO 28003KT 3SM BR FEW001 BKN060 OVC080 17/16 A3005 RMK AO2 T01720161
Conditions at: KEKN (ELKINS , WV, US) observed 0800 UTC 29 May 2020
Temperature: 17.2°C (63°F)
Dewpoint: 16.1°C (61°F) [RH = 93%]
Pressure (altimeter): 30.05 inches Hg (1017.7 mb)
Winds: from the W (280 degrees) at 3 MPH (3 knots; 1.5 m/s)
Visibility: 3 miles ( 5 km)
Ceiling: 6000 feet AGL
Clouds: few clouds at 100 feet AGL
broken clouds at 6000 feet AGL
overcast cloud deck at 8000 feet AGL
Weather: BR  (mist)

METAR text: KEKN 290751Z AUTO 00000KT 9SM SCT050 BKN065 OVC080 17/16 A3005 RMK AO2 SLP166 T01720161
Conditions at: KEKN (ELKINS , WV, US) observed 0751 UTC 29 May 2020
Temperature: 17.2°C (63°F)
Dewpoint: 16.1°C (61°F) [RH = 93%]
Pressure (altimeter): 30.05 inches Hg (1017.7 mb)
[Sea-level pressure: 1016.6 mb]
Winds: calm
Visibility: 9 miles (14 km)
Ceiling: 6500 feet AGL
Clouds: scattered clouds at 5000 feet AGL
broken clouds at 6500 feet AGL
overcast cloud deck at 8000 feet AGL
Weather: automated observation with no human augmentation;
there may or may not be significant weather present at this time

METAR text: KEKN 290728Z AUTO 00000KT 9SM OVC055 17/16 A3004 RMK AO2 T01720161
Conditions at: KEKN (ELKINS , WV, US) observed 0728 UTC 29 May 2020
Temperature: 17.2°C (63°F)
Dewpoint: 16.1°C (61°F) [RH = 93%]
Pressure (altimeter): 30.04 inches Hg (1017.4 mb)
Winds: calm
Visibility: 9 miles (14 km)
Ceiling: 5500 feet AGL
Clouds: overcast cloud deck at 5500 feet AGL
Weather: automated observation with no human augmentation;
there may or may not be significant weather present at this time

METAR text: KEKN 290720Z AUTO 00000KT 2SM BR BKN050 OVC080 17/16 A3005 RMK AO2 T01720156
Conditions at: KEKN (ELKINS , WV, US) observed 0720 UTC 29 May 2020
Temperature: 17.2°C (63°F)
Dewpoint: 15.6°C (60°F) [RH = 90%]
Pressure (altimeter): 30.05 inches Hg (1017.7 mb)
Winds: calm
Visibility: 2.00 miles (3.22 km)
Ceiling: 5000 feet AGL
Clouds: broken clouds at 5000 feet AGL
overcast cloud deck at 8000 feet AGL
Weather: BR  (mist)

METAR text: KEKN 290651Z AUTO 00000KT 3/4SM BR SCT002 BKN048 16/15 A3005 RMK AO2 SLP165 T01610150
Conditions at: KEKN (ELKINS , WV, US) observed 0651 UTC 29 May 2020
Temperature: 16.1°C (61°F)
Dewpoint: 15.0°C (59°F) [RH = 93%]
Pressure (altimeter): 30.05 inches Hg (1017.7 mb)
[Sea-level pressure: 1016.5 mb]
Winds: calm
Visibility: 0.75 miles (1.21 km)
Ceiling: 4800 feet AGL
Clouds: scattered clouds at 200 feet AGL
broken clouds at 4800 feet AGL
Weather: BR  (mist)

METAR text: KEKN 290649Z AUTO 00000KT 3/4SM BR SCT002 BKN048 16/15 A3005 RMK AO2
Conditions at: KEKN (ELKINS , WV, US) observed 0649 UTC 29 May 2020
Temperature: 16.0°C (61°F)
Dewpoint: 15.0°C (59°F) [RH = 94%]
Pressure (altimeter): 30.05 inches Hg (1017.7 mb)
Winds: calm
Visibility: 0.75 miles (1.21 km)
Ceiling: 4800 feet AGL
Clouds: scattered clouds at 200 feet AGL
broken clouds at 4800 feet AGL
Weather: BR  (mist)

METAR text: KEKN 290639Z AUTO 00000KT 1 1/4SM BR SCT002 17/15 A3005 RMK AO2 T01670150
Conditions at: KEKN (ELKINS , WV, US) observed 0639 UTC 29 May 2020
Temperature: 16.7°C (62°F)
Dewpoint: 15.0°C (59°F) [RH = 90%]
Pressure (altimeter): 30.05 inches Hg (1017.7 mb)
Winds: calm
Visibility: 1.25 miles (2.01 km)
Ceiling: at least 12,000 feet AGL
Clouds: scattered clouds at 200 feet AGL
Weather: BR  (mist)

METAR text: KEKN 290634Z AUTO 00000KT 3/4SM BR VV002 17/16 A3005 RMK AO2 T01670156
Conditions at: KEKN (ELKINS , WV, US) observed 0634 UTC 29 May 2020
Temperature: 16.7°C (62°F)
Dewpoint: 15.6°C (60°F) [RH = 93%]
Pressure (altimeter): 30.05 inches Hg (1017.7 mb)
Winds: calm
Visibility: 0.75 miles (1.21 km)
Ceiling: indefinite ceiling with vertical visibility of 200 feet AGL
Clouds: obscured sky
Weather: BR  (mist)

METAR text: KEKN 290625Z AUTO 00000KT 3/4SM BR SCT002 SCT060 17/16 A3005 RMK AO2 T01720156
Conditions at: KEKN (ELKINS , WV, US) observed 0625 UTC 29 May 2020
Temperature: 17.2°C (63°F)
Dewpoint: 15.6°C (60°F) [RH = 90%]
Pressure (altimeter): 30.05 inches Hg (1017.7 mb)
Winds: calm
Visibility: 0.75 miles (1.21 km)
Ceiling: at least 12,000 feet AGL
Clouds: scattered clouds at 200 feet AGL
scattered clouds at 6000 feet AGL
Weather: BR  (mist)

METAR text: KEKN 290621Z AUTO 00000KT 2SM BR FEW002 SCT060 17/16 A3005 RMK AO2 VIS 3/4V5 T01720156
Conditions at: KEKN (ELKINS , WV, US) observed 0621 UTC 29 May 2020
Temperature: 17.2°C (63°F)
Dewpoint: 15.6°C (60°F) [RH = 90%]
Pressure (altimeter): 30.05 inches Hg (1017.7 mb)
Winds: calm
Visibility: 2.00 miles (3.22 km)
Ceiling: at least 12,000 feet AGL
Clouds: few clouds at 200 feet AGL
scattered clouds at 6000 feet AGL
Weather: BR  (mist)

METAR text: KEKN 290611Z AUTO 00000KT 6SM BR SCT060 BKN090 17/16 A3005 RMK AO2 T01670156
Conditions at: KEKN (ELKINS , WV, US) observed 0611 UTC 29 May 2020
Temperature: 16.7°C (62°F)
Dewpoint: 15.6°C (60°F) [RH = 93%]
Pressure (altimeter): 30.05 inches Hg (1017.7 mb)
Winds: calm
Visibility: 6 miles (10 km)
Ceiling: 9000 feet AGL
Clouds: scattered clouds at 6000 feet AGL
broken clouds at 9000 feet AGL
Weather: BR  (mist)

METAR text: KEKN 290604Z AUTO 00000KT 2 1/2SM BR BKN065 BKN090 17/16 A3005 RMK AO2 VIS 3/4V5 T01720161
Conditions at: KEKN (ELKINS , WV, US) observed 0604 UTC 29 May 2020
Temperature: 17.2°C (63°F)
Dewpoint: 16.1°C (61°F) [RH = 93%]
Pressure (altimeter): 30.05 inches Hg (1017.7 mb)
Winds: calm
Visibility: 2.50 miles (4.02 km)
Ceiling: 6500 feet AGL
Clouds: broken clouds at 6500 feet AGL
broken clouds at 9000 feet AGL
Weather: BR  (mist)

METAR text: KEKN 290551Z AUTO 00000KT 3/4SM BR FEW001 BKN065 OVC090 17/16 A3005 RMK AO2 SLP164 60007 T01720161 10233 20172 56001
Conditions at: KEKN (ELKINS , WV, US) observed 0551 UTC 29 May 2020
Temperature: 17.2°C (63°F)
Dewpoint: 16.1°C (61°F) [RH = 93%]
Pressure (altimeter): 30.05 inches Hg (1017.7 mb)
[Sea-level pressure: 1016.4 mb]
Winds: calm
Visibility: 0.75 miles (1.21 km)
Ceiling: 6500 feet AGL
Clouds: few clouds at 100 feet AGL
broken clouds at 6500 feet AGL
overcast cloud deck at 9000 feet AGL
Weather: BR  (mist)

METAR text: KEKN 290536Z AUTO 00000KT 1/2SM FG SCT001 OVC065 17/16 A3005 RMK AO2 T01720161
Conditions at: KEKN (ELKINS , WV, US) observed 0536 UTC 29 May 2020
Temperature: 17.2°C (63°F)
Dewpoint: 16.1°C (61°F) [RH = 93%]
Pressure (altimeter): 30.05 inches Hg (1017.7 mb)
Winds: calm
Visibility: 0.50 miles (0.80 km)
Ceiling: 6500 feet AGL
Clouds: scattered clouds at 100 feet AGL
overcast cloud deck at 6500 feet AGL
Weather: FG  (fog)

METAR text: KEKN 290527Z AUTO 00000KT 1SM BR BKN001 BKN065 OVC090 17/16 A3005 RMK AO2 T01720161
Conditions at: KEKN (ELKINS , WV, US) observed 0527 UTC 29 May 2020
Temperature: 17.2°C (63°F)
Dewpoint: 16.1°C (61°F) [RH = 93%]
Pressure (altimeter): 30.05 inches Hg (1017.7 mb)
Winds: calm
Visibility: 1.00 miles (1.61 km)
Ceiling: 100 feet AGL
Clouds: broken clouds at 100 feet AGL
broken clouds at 6500 feet AGL
overcast cloud deck at 9000 feet AGL
Weather: BR  (mist)

METAR text: KEKN 290451Z AUTO 00000KT 1/4SM FG VV001 17/16 A3005 RMK AO2 SLP164 T01720156 402940172
Conditions at: KEKN (ELKINS , WV, US) observed 0451 UTC 29 May 2020
Temperature: 17.2°C (63°F)
Dewpoint: 15.6°C (60°F) [RH = 90%]
Pressure (altimeter): 30.05 inches Hg (1017.7 mb)
[Sea-level pressure: 1016.4 mb]
Winds: calm
Visibility: 0.25 miles (0.40 km)
Ceiling: indefinite ceiling with vertical visibility of 100 feet AGL
Clouds: obscured sky
Weather: FG  (fog)

METAR text: KEKN 290414Z AUTO 00000KT 1/4SM FG VV001 18/17 A3005 RMK AO2 T01780167
Conditions at: KEKN (ELKINS , WV, US) observed 0414 UTC 29 May 2020
Temperature: 17.8°C (64°F)
Dewpoint: 16.7°C (62°F) [RH = 93%]
Pressure (altimeter): 30.05 inches Hg (1017.7 mb)
Winds: calm
Visibility: 0.25 miles (0.40 km)
Ceiling: indefinite ceiling with vertical visibility of 100 feet AGL
Clouds: obscured sky
Weather: FG  (fog)

METAR text: KEKN 290401Z AUTO 00000KT 1/2SM FG VV001 18/16 A3005 RMK AO2 T01780161
Conditions at: KEKN (ELKINS , WV, US) observed 0401 UTC 29 May 2020
Temperature: 17.8°C (64°F)
Dewpoint: 16.1°C (61°F) [RH = 90%]
Pressure (altimeter): 30.05 inches Hg (1017.7 mb)
Winds: calm
Visibility: 0.50 miles (0.80 km)
Ceiling: indefinite ceiling with vertical visibility of 100 feet AGL
Clouds: obscured sky
Weather: FG  (fog)

METAR text: KEKN 290351Z AUTO 00000KT 1/4SM FG VV001 18/17 A3005 RMK AO2 SLP164 T01780167
Conditions at: KEKN (ELKINS , WV, US) observed 0351 UTC 29 May 2020
Temperature: 17.8°C (64°F)
Dewpoint: 16.7°C (62°F) [RH = 93%]
Pressure (altimeter): 30.05 inches Hg (1017.7 mb)
[Sea-level pressure: 1016.4 mb]
Winds: calm
Visibility: 0.25 miles (0.40 km)
Ceiling: indefinite ceiling with vertical visibility of 100 feet AGL
Clouds: obscured sky
Weather: FG  (fog)

METAR text: KEKN 290324Z AUTO 00000KT 1/4SM FG VV001 18/17 A3005 RMK AO2 T01830172
Conditions at: KEKN (ELKINS , WV, US) observed 0324 UTC 29 May 2020
Temperature: 18.3°C (65°F)
Dewpoint: 17.2°C (63°F) [RH = 93%]
Pressure (altimeter): 30.05 inches Hg (1017.7 mb)
Winds: calm
Visibility: 0.25 miles (0.40 km)
Ceiling: indefinite ceiling with vertical visibility of 100 feet AGL
Clouds: obscured sky
Weather: FG  (fog)

METAR text: KEKN 290310Z AUTO 00000KT 1/2SM FG VV002 19/17 A3005 RMK AO2 T01890172
Conditions at: KEKN (ELKINS , WV, US) observed 0310 UTC 29 May 2020
Temperature: 18.9°C (66°F)
Dewpoint: 17.2°C (63°F) [RH = 90%]
Pressure (altimeter): 30.05 inches Hg (1017.7 mb)
Winds: calm
Visibility: 0.50 miles (0.80 km)
Ceiling: indefinite ceiling with vertical visibility of 200 feet AGL
Clouds: obscured sky
Weather: FG  (fog)

METAR text: KEKN 290251Z AUTO 00000KT 3/4SM BR CLR 18/17 A3005 RMK AO2 SLP165 60007 T01830172 53009
Conditions at: KEKN (ELKINS , WV, US) observed 0251 UTC 29 May 2020
Temperature: 18.3°C (65°F)
Dewpoint: 17.2°C (63°F) [RH = 93%]
Pressure (altimeter): 30.05 inches Hg (1017.7 mb)
[Sea-level pressure: 1016.5 mb]
Winds: calm
Visibility: 0.75 miles (1.21 km)
Ceiling: at least 12,000 feet AGL
Clouds: sky clear below 12,000 feet AGL
Weather: BR  (mist)

METAR text: KEKN 290248Z AUTO 00000KT 3/4SM BR CLR 18/17 A3005 RMK AO2
Conditions at: KEKN (ELKINS , WV, US) observed 0248 UTC 29 May 2020
Temperature: 18.0°C (64°F)
Dewpoint: 17.0°C (63°F) [RH = 94%]
Pressure (altimeter): 30.05 inches Hg (1017.7 mb)
Winds: calm
Visibility: 0.75 miles (1.21 km)
Ceiling: at least 12,000 feet AGL
Clouds: sky clear below 12,000 feet AGL
Weather: BR  (mist)

METAR text: KEKN 290236Z AUTO 00000KT 2 1/2SM BR CLR 18/17 A3005 RMK AO2 VIS 1 1/4V5 T01830172
Conditions at: KEKN (ELKINS , WV, US) observed 0236 UTC 29 May 2020
Temperature: 18.3°C (65°F)
Dewpoint: 17.2°C (63°F) [RH = 93%]
Pressure (altimeter): 30.05 inches Hg (1017.7 mb)
Winds: calm
Visibility: 2.50 miles (4.02 km)
Ceiling: at least 12,000 feet AGL
Clouds: sky clear below 12,000 feet AGL
Weather: BR  (mist)

METAR text: KEKN 290151Z AUTO 00000KT 10SM FEW070 19/18 A3005 RMK AO2 SLP164 T01940178
Conditions at: KEKN (ELKINS , WV, US) observed 0151 UTC 29 May 2020
Temperature: 19.4°C (67°F)
Dewpoint: 17.8°C (64°F) [RH = 90%]
Pressure (altimeter): 30.05 inches Hg (1017.7 mb)
[Sea-level pressure: 1016.4 mb]
Winds: calm
Visibility: 10 or more miles (16+ km)
Ceiling: at least 12,000 feet AGL
Clouds: few clouds at 7000 feet AGL
Weather: automated observation with no human augmentation;
there may or may not be significant weather present at this time

METAR text: KEKN 290051Z AUTO 16004KT 10SM FEW036 SCT060 21/18 A3002 RMK AO2 RAB35E51 SLP154 P0007 T02110183
Conditions at: KEKN (ELKINS , WV, US) observed 0051 UTC 29 May 2020
Temperature: 21.1°C (70°F)
Dewpoint: 18.3°C (65°F) [RH = 84%]
Pressure (altimeter): 30.02 inches Hg (1016.7 mb)
[Sea-level pressure: 1015.4 mb]
Winds: from the SSE (160 degrees) at 5 MPH (4 knots; 2.1 m/s)
Visibility: 10 or more miles (16+ km)
Ceiling: at least 12,000 feet AGL
Clouds: few clouds at 3600 feet AGL
scattered clouds at 6000 feet AGL
Weather: automated observation with no human augmentation;
there may or may not be significant weather present at this time

METAR text: KEKN 290046Z AUTO 15005G15KT 3SM -RA FEW038 SCT060 BKN080 22/18 A3002 RMK AO2 LTG DSNT N RAB35 P0007
Conditions at: KEKN (ELKINS , WV, US) observed 0046 UTC 29 May 2020
Temperature: 22.0°C (72°F)
Dewpoint: 18.0°C (64°F) [RH = 78%]
Pressure (altimeter): 30.02 inches Hg (1016.7 mb)
Winds: from the SSE (150 degrees) at 6 MPH (5 knots; 2.6 m/s)
gusting to 17 MPH (15 knots; 7.7 m/s)
Visibility: 3 miles ( 5 km)
Ceiling: 8000 feet AGL
Clouds: few clouds at 3800 feet AGL
scattered clouds at 6000 feet AGL
broken clouds at 8000 feet AGL
Weather: -RA  (light rain)

METAR text: KEKN 290037Z AUTO 16008G17KT 1 3/4SM +RA FEW036 SCT055 SCT090 23/19 A3003 RMK AO2 LTG DSNT N RAB35 P0002 T02280189
Conditions at: KEKN (ELKINS , WV, US) observed 0037 UTC 29 May 2020
Temperature: 22.8°C (73°F)
Dewpoint: 18.9°C (66°F) [RH = 79%]
Pressure (altimeter): 30.03 inches Hg (1017.0 mb)
Winds: from the SSE (160 degrees) at 9 MPH (8 knots; 4.1 m/s)
gusting to 20 MPH (17 knots; 8.7 m/s)
Visibility: 1.75 miles (2.82 km)
Ceiling: at least 12,000 feet AGL
Clouds: few clouds at 3600 feet AGL
scattered clouds at 5500 feet AGL
scattered clouds at 9000 feet AGL
Weather: +RA  (heavy rain)

METAR text: KEKN 282351Z AUTO 20003KT 10SM CLR 23/19 A3002 RMK AO2 SLP155 60006 T02280194 10294 20222 55004
Conditions at: KEKN (ELKINS , WV, US) observed 2351 UTC 28 May 2020
Temperature: 22.8°C (73°F)
Dewpoint: 19.4°C (67°F) [RH = 81%]
Pressure (altimeter): 30.02 inches Hg (1016.7 mb)
[Sea-level pressure: 1015.5 mb]
Winds: from the SSW (200 degrees) at 3 MPH (3 knots; 1.5 m/s)
Visibility: 10 or more miles (16+ km)
Ceiling: at least 12,000 feet AGL
Clouds: sky clear below 12,000 feet AGL
Weather: automated observation with no human augmentation;
there may or may not be significant weather present at this time

METAR text: KEKN 282251Z AUTO 20003KT 10SM FEW070 26/20 A3001 RMK AO2 SLP149 T02560200
Conditions at: KEKN (ELKINS , WV, US) observed 2251 UTC 28 May 2020
Temperature: 25.6°C (78°F)
Dewpoint: 20.0°C (68°F) [RH = 71%]
Pressure (altimeter): 30.01 inches Hg (1016.3 mb)
[Sea-level pressure: 1014.9 mb]
Winds: from the SSW (200 degrees) at 3 MPH (3 knots; 1.5 m/s)
Visibility: 10 or more miles (16+ km)
Ceiling: at least 12,000 feet AGL
Clouds: few clouds at 7000 feet AGL
Weather: automated observation with no human augmentation;
there may or may not be significant weather present at this time

Forecast for: KEKN (ELKINS , WV, US)
Text: KEKN 292114Z 2921/3018 24007KT P6SM -SHRA VCTS SCT050CB BKN110
Forecast period: 2100 UTC 29 May 2020 to 0200 UTC 30 May 2020
Forecast type: FROM: standard forecast or significant change
Winds: from the WSW (240 degrees) at 8 MPH (7 knots; 3.6 m/s)
Visibility: 6 or more miles 10+ km)
Ceiling: 11000 feet AGL
Clouds: scattered clouds at 5000 feet AGL
broken clouds at 11000 feet AGL
Weather: -SHRA VCTS  (light rain showers, thunderstorm in vicinity)
Text: FM300200 00000KT 5SM -SHRA BKN030
Forecast period: 0200 to 0400 UTC 30 May 2020
Forecast type: FROM: standard forecast or significant change
Winds: calm
Visibility: 5 miles (8 km)
Ceiling: 3000 feet AGL
Clouds: broken clouds at 3000 feet AGL
Weather: -SHRA  (light rain showers)
Text: FM300400 00000KT 3SM BR BKN012
Forecast period: 0400 to 0700 UTC 30 May 2020
Forecast type: FROM: standard forecast or significant change
Winds: calm
Visibility: 3 miles (5 km)
Ceiling: 1200 feet AGL
Clouds: broken clouds at 1200 feet AGL
Weather: BR  (mist)
Text: FM300700 00000KT 1/2SM FG OVC005
Forecast period: 0700 to 1400 UTC 30 May 2020
Forecast type: FROM: standard forecast or significant change
Winds: calm
Visibility: 0.50 miles (0.80 km)
Ceiling: 500 feet AGL
Clouds: overcast cloud deck at 500 feet AGL
Weather: FG  (fog)
Text: FM301400 00000KT P6SM SCT025
Forecast period: 1400 to 1800 UTC 30 May 2020
Forecast type: FROM: standard forecast or significant change
Winds: calm
Visibility: 6 or more miles 10+ km)
Ceiling: at least 12,000 feet AGL
Clouds: scattered clouds at 2500 feet AGL
Weather: no significant weather forecast for this period